CheckWX is a tool to help pilots better visualize weather data.  It is not intended as a substitute for an official pre-flight weather briefing.

05:40:48 UTC

KPCM METAR
Plant City Airport
Plant City, Florida, USA
Current

26 mins ago

KPCM 250515Z AUTO 12004KT 10SM CLR 19/15 A3019 RMK AO2
Observed
Mar-25 @ 05:15 UTC
Wind
  • 120° at 4 KTS
Visibility
10 SM
Flight Rules
VFR
Cloud Levels
  • Clear skies
Temperature
19°C / 66°F
Dewpoint
15°C / 59°F
Humidity
78%
Altimeter
30.19" Hg
Pressure
1022.32 hPa
Previous

46 mins ago

KPCM 250455Z AUTO 12005KT 10SM CLR 18/15 A3019 RMK AO2
Observed
Mar-25 @ 04:55 UTC
Wind
  • 120° at 5 KTS
Visibility
10 SM
Flight Rules
VFR
Cloud Levels
  • Clear skies
Temperature
18°C / 64°F
Dewpoint
15°C / 59°F
Humidity
83%
Altimeter
30.19" Hg
Pressure
1022.32 hPa
Previous

1 hour ago

KPCM 250435Z AUTO 13005KT 10SM CLR 19/15 A3020 RMK AO2
Observed
Mar-25 @ 04:35 UTC
Wind
  • 130° at 5 KTS
Visibility
10 SM
Flight Rules
VFR
Cloud Levels
  • Clear skies
Temperature
19°C / 66°F
Dewpoint
15°C / 59°F
Humidity
78%
Altimeter
30.2" Hg
Pressure
1022.72 hPa